Terminal Aerodrome Forecast
Issued by NWS Atlanta, GA

Home | Current Version | Previous Version | Text Only | Print | Product List | Glossary On
Versions: 1 2 3 4 5 6 7 8 9 10 11 12 13 14 15 16 17 18 19 20 21 22 23 24 25 26 27 28 29 30 31 32
093
FTAK31 PAJN 292322
TAFAHN
TAF
PAHN 292322Z 3000/3024 11010KT P6SM SCT025 BKN035
     FM300300 09007KT P6SM BKN045
     FM300900 VRB03KT P6SM SCT010 OVC025
     FM301800 11008KT P6SM SCT025 BKN035
     FM302100 12010KT P6SM SCT040
      AMD LTD TO CLD VIS AND WIND=

USA.gov is the U.S. government's official web portal to all federal, state and local government web resources and services.